createdAt,value
2022-09-27T00:01:26.241Z,16.30
2022-09-27T00:03:55.627Z,16.10
2022-09-27T00:06:25.204Z,15.90
2022-09-27T00:08:52.899Z,16.10
2022-09-27T00:11:25.738Z,16.20
2022-09-27T00:13:55.817Z,16.10
2022-09-27T00:16:24.344Z,15.90
2022-09-27T00:18:51.937Z,15.80
2022-09-27T00:21:19.571Z,15.80
2022-09-27T00:23:47.150Z,15.90
2022-09-27T00:26:14.818Z,15.80
2022-09-27T00:28:42.381Z,15.80
2022-09-27T00:31:26.706Z,16.10
2022-09-27T00:33:55.254Z,16.10
2022-09-27T00:36:23.718Z,16.00
2022-09-27T00:38:51.522Z,16.20
2022-09-27T00:41:20.830Z,16.10
2022-09-27T00:43:51.391Z,16.00
2022-09-27T00:46:41.642Z,16.00
2022-09-27T00:49:17.143Z,15.90
2022-09-27T00:51:46.144Z,15.80
2022-09-27T00:54:14.863Z,15.90
2022-09-27T00:56:42.851Z,16.00
2022-09-27T00:59:19.341Z,16.10
2022-09-27T01:01:46.917Z,16.00
2022-09-27T01:04:18.403Z,16.10
2022-09-27T01:06:45.961Z,15.90
2022-09-27T01:09:13.714Z,15.90
2022-09-27T01:11:54.713Z,15.80
2022-09-27T01:14:41.161Z,15.80
2022-09-27T01:17:15.738Z,16.00
2022-09-27T01:19:43.203Z,16.00
2022-09-27T01:22:26.335Z,16.10
2022-09-27T01:24:58.486Z,16.30
2022-09-27T01:27:46.377Z,16.30
2022-09-27T01:30:32.814Z,16.20
2022-09-27T01:33:00.242Z,16.20
2022-09-27T01:35:36.279Z,16.30
2022-09-27T01:38:10.027Z,16.20
2022-09-27T01:40:40.684Z,16.10
2022-09-27T01:43:50.309Z,15.80
2022-09-27T01:46:29.866Z,15.60
2022-09-27T01:49:17.387Z,15.60
2022-09-27T01:51:53.949Z,15.90
2022-09-27T01:54:25.380Z,15.70
2022-09-27T01:57:22.008Z,15.70
2022-09-27T01:59:51.817Z,15.70
2022-09-27T02:02:48.647Z,15.80
2022-09-27T02:05:33.799Z,15.80
2022-09-27T02:08:14.768Z,16.10
2022-09-27T02:10:45.130Z,16.10
2022-09-27T02:13:44.484Z,16.00
2022-09-27T02:16:32.213Z,16.10
2022-09-27T02:19:22.093Z,16.10
2022-09-27T02:22:02.027Z,16.20
2022-09-27T02:24:55.996Z,16.20
2022-09-27T02:27:31.338Z,16.20
2022-09-27T02:30:10.803Z,16.30
2022-09-27T02:32:39.487Z,16.40
2022-09-27T02:35:09.771Z,16.30
2022-09-27T02:37:37.297Z,16.40
2022-09-27T02:40:05.235Z,16.40
2022-09-27T02:42:33.987Z,16.40
2022-09-27T02:45:03.097Z,16.50
2022-09-27T02:47:36.685Z,16.40
2022-09-27T02:50:05.848Z,16.20
2022-09-27T02:53:10.049Z,16.40
2022-09-27T02:55:50.573Z,16.40
2022-09-27T02:58:47.335Z,16.50
2022-09-27T03:01:30.039Z,16.40
2022-09-27T03:04:27.146Z,16.40
2022-09-27T03:06:55.237Z,16.30
2022-09-27T03:09:23.923Z,16.00
2022-09-27T03:11:51.530Z,15.90
2022-09-27T03:14:19.065Z,15.80
2022-09-27T03:17:11.360Z,15.70
2022-09-27T03:19:57.520Z,15.80
2022-09-27T03:22:48.490Z,16.00
2022-09-27T03:25:16.206Z,16.10
2022-09-27T03:27:44.050Z,16.30
2022-09-27T03:30:13.155Z,16.20
2022-09-27T03:32:44.707Z,16.30
2022-09-27T03:35:35.486Z,16.20
2022-09-27T03:38:03.205Z,16.20
2022-09-27T03:40:30.804Z,16.20
2022-09-27T03:42:58.410Z,16.10
2022-09-27T03:45:26.378Z,16.00
2022-09-27T03:47:55.119Z,16.20
2022-09-27T03:50:22.908Z,16.20
2022-09-27T03:52:50.432Z,16.30
2022-09-27T03:55:18.068Z,16.10
2022-09-27T03:57:46.905Z,16.10
2022-09-27T04:00:16.395Z,15.90
2022-09-27T04:02:44.322Z,15.90
2022-09-27T04:05:24.374Z,16.00
2022-09-27T04:07:56.561Z,16.10
2022-09-27T04:10:24.178Z,16.10
2022-09-27T04:12:51.845Z,16.10
2022-09-27T04:15:21.967Z,16.00
2022-09-27T04:17:49.626Z,15.80
2022-09-27T04:20:36.257Z,15.90
2022-09-27T04:23:13.508Z,15.90
2022-09-27T04:25:47.970Z,15.80
2022-09-27T04:28:21.093Z,15.70
2022-09-27T04:30:49.383Z,15.70
2022-09-27T04:33:43.041Z,15.70
2022-09-27T04:36:29.065Z,15.70
2022-09-27T04:39:09.539Z,15.80
2022-09-27T04:41:40.292Z,15.90
2022-09-27T04:44:08.013Z,15.90
2022-09-27T04:46:35.828Z,15.90
2022-09-27T04:49:03.388Z,16.00
2022-09-27T04:51:33.150Z,16.00
2022-09-27T04:54:00.823Z,15.90
2022-09-27T04:56:33.693Z,16.00
2022-09-27T04:59:06.801Z,15.90
2022-09-27T05:01:37.377Z,16.00
2022-09-27T05:04:13.274Z,15.90
2022-09-27T05:06:44.424Z,15.80
2022-09-27T05:09:23.935Z,15.80
2022-09-27T05:11:54.418Z,15.90
2022-09-27T05:14:27.782Z,15.90
2022-09-27T05:17:07.956Z,15.90
2022-09-27T05:20:04.174Z,15.90
2022-09-27T05:22:44.650Z,15.90
2022-09-27T05:25:12.215Z,15.90
2022-09-27T05:27:41.072Z,15.90
2022-09-27T05:30:08.785Z,16.00
2022-09-27T05:32:44.284Z,16.00
2022-09-27T05:35:45.725Z,16.00
2022-09-27T05:38:13.808Z,15.90
2022-09-27T05:40:45.628Z,16.00
2022-09-27T05:43:13.338Z,16.10
2022-09-27T05:45:40.904Z,16.10
2022-09-27T05:48:09.278Z,16.10
2022-09-27T05:50:45.941Z,16.10
2022-09-27T05:53:14.063Z,16.10
2022-09-27T05:55:43.335Z,16.10
2022-09-27T05:58:16.005Z,16.10
2022-09-27T06:00:56.274Z,16.10
2022-09-27T06:03:58.849Z,16.10
2022-09-27T06:06:46.823Z,16.00
2022-09-27T06:09:15.259Z,15.90
2022-09-27T06:11:45.607Z,16.00
2022-09-27T06:14:15.861Z,16.20
2022-09-27T06:17:09.502Z,16.30
2022-09-27T06:19:41.058Z,16.30
2022-09-27T06:22:08.737Z,16.40
2022-09-27T06:24:56.087Z,16.40
2022-09-27T06:27:26.603Z,16.40
2022-09-27T06:30:10.247Z,16.30
2022-09-27T06:33:03.644Z,16.50
2022-09-27T06:35:35.040Z,16.40
2022-09-27T06:38:07.280Z,16.40
2022-09-27T06:40:35.576Z,16.40
2022-09-27T06:43:17.173Z,16.30
2022-09-27T06:46:05.952Z,16.20
2022-09-27T06:49:12.359Z,16.30
2022-09-27T06:51:41.235Z,16.40
2022-09-27T06:54:09.061Z,16.40
2022-09-27T06:56:36.879Z,16.50
2022-09-27T06:59:22.830Z,16.60
2022-09-27T07:01:52.788Z,16.60
2022-09-27T07:04:52.989Z,16.80
2022-09-27T07:07:39.079Z,16.80
2022-09-27T07:10:09.876Z,16.80
2022-09-27T07:12:38.530Z,17.00
2022-09-27T07:15:06.644Z,17.10
2022-09-27T07:17:36.084Z,17.30
2022-09-27T07:20:03.849Z,17.40
2022-09-27T07:22:31.361Z,17.60
2022-09-27T07:25:02.663Z,17.60
2022-09-27T07:27:34.687Z,17.80
2022-09-27T07:30:04.871Z,17.90
2022-09-27T07:32:32.369Z,17.90
2022-09-27T07:35:00.238Z,17.90
2022-09-27T07:37:28.129Z,18.00
2022-09-27T07:39:55.726Z,18.10
2022-09-27T07:42:23.323Z,18.20
2022-09-27T07:44:52.988Z,18.20
2022-09-27T07:47:27.681Z,18.20
2022-09-27T07:50:30.321Z,18.10
2022-09-27T07:53:02.522Z,18.10
2022-09-27T07:55:53.289Z,18.20
2022-09-27T07:58:24.675Z,18.20
2022-09-27T08:00:57.098Z,18.20
2022-09-27T08:03:24.659Z,18.10
2022-09-27T08:05:52.331Z,18.10
2022-09-27T08:08:19.801Z,18.00
2022-09-27T08:10:49.734Z,18.00
2022-09-27T08:13:20.659Z,18.00
2022-09-27T08:15:52.762Z,18.10
2022-09-27T08:18:22.309Z,18.20
2022-09-27T08:20:58.933Z,18.30
2022-09-27T08:23:44.446Z,18.30
2022-09-27T08:26:22.886Z,18.40
2022-09-27T08:28:56.680Z,18.40
2022-09-27T08:31:26.846Z,18.40
2022-09-27T08:33:58.260Z,18.50
2022-09-27T08:36:26.723Z,18.70
2022-09-27T08:38:57.927Z,18.90
2022-09-27T08:41:27.921Z,18.70
2022-09-27T08:43:55.422Z,18.70
2022-09-27T08:46:24.038Z,18.70
2022-09-27T08:48:54.719Z,18.80
2022-09-27T08:51:24.756Z,18.80
2022-09-27T08:53:55.460Z,18.80
2022-09-27T08:56:24.409Z,18.90
2022-09-27T08:58:55.530Z,19.00
2022-09-27T09:01:29.114Z,19.10
2022-09-27T09:04:33.129Z,19.20
2022-09-27T09:07:09.727Z,19.30
2022-09-27T09:09:47.757Z,19.20
2022-09-27T09:12:48.095Z,19.30
2022-09-27T09:15:26.224Z,19.40
2022-09-27T09:18:16.606Z,19.50
2022-09-27T09:21:07.909Z,19.70
2022-09-27T09:23:35.492Z,19.90
2022-09-27T09:26:26.057Z,19.80
2022-09-27T09:29:29.305Z,19.90
2022-09-27T09:32:15.227Z,20.10
2022-09-27T09:34:46.383Z,20.20
2022-09-27T09:37:17.286Z,20.10
2022-09-27T09:39:47.435Z,20.20
2022-09-27T09:42:19.978Z,20.30
2022-09-27T09:44:47.444Z,20.20
2022-09-27T09:47:36.363Z,20.20
2022-09-27T09:50:16.326Z,20.30
2022-09-27T09:52:49.753Z,20.30
2022-09-27T09:55:24.369Z,20.30
2022-09-27T09:58:20.544Z,20.40
2022-09-27T10:00:53.358Z,20.60
2022-09-27T10:03:21.351Z,20.70
2022-09-27T10:05:49.694Z,20.70
2022-09-27T10:08:19.003Z,20.80
2022-09-27T10:10:48.970Z,20.90
2022-09-27T10:13:33.982Z,20.90
2022-09-27T10:16:06.174Z,20.90
2022-09-27T10:18:37.133Z,21.00
2022-09-27T10:21:08.331Z,21.10
2022-09-27T10:23:36.030Z,21.30
2022-09-27T10:26:06.438Z,21.30
2022-09-27T10:28:53.318Z,21.30
2022-09-27T10:31:36.150Z,21.20
2022-09-27T10:34:30.006Z,21.20
2022-09-27T10:37:17.396Z,20.90
2022-09-27T10:40:34.108Z,20.90
2022-09-27T10:43:27.522Z,20.90
2022-09-27T10:46:03.883Z,21.00
2022-09-27T10:48:33.679Z,21.00
2022-09-27T10:51:02.505Z,21.30
2022-09-27T10:53:38.424Z,21.40
2022-09-27T10:56:20.633Z,21.50
2022-09-27T10:58:48.183Z,21.40
2022-09-27T11:01:18.568Z,21.80
2022-09-27T11:04:24.186Z,21.90
2022-09-27T11:06:51.966Z,21.70
2022-09-27T11:09:24.421Z,22.00
2022-09-27T11:12:13.396Z,22.20
2022-09-27T11:14:42.383Z,22.50
2022-09-27T11:17:20.509Z,22.60
2022-09-27T11:20:06.811Z,22.60
2022-09-27T11:22:43.584Z,22.30
2022-09-27T11:25:31.854Z,22.60
2022-09-27T11:28:12.487Z,23.00
2022-09-27T11:30:58.937Z,23.00
2022-09-27T11:34:00.452Z,23.00
2022-09-27T11:36:53.675Z,22.70
2022-09-27T11:39:41.454Z,22.80
2022-09-27T11:42:34.463Z,23.00
2022-09-27T11:45:45.469Z,23.10
2022-09-27T11:48:23.042Z,23.00
2022-09-27T11:51:00.232Z,23.20
2022-09-27T11:53:29.002Z,23.50
2022-09-27T11:56:18.065Z,23.30
2022-09-27T11:58:51.641Z,23.30
2022-09-27T12:01:34.336Z,23.40
2022-09-27T12:04:15.874Z,23.30
2022-09-27T12:07:03.392Z,23.30
2022-09-27T12:09:33.580Z,23.20
2022-09-27T12:12:04.497Z,23.60
2022-09-27T12:14:52.523Z,23.70
2022-09-27T12:17:22.034Z,23.70
2022-09-27T12:19:53.644Z,23.60
2022-09-27T12:22:57.559Z,23.60
2022-09-27T12:25:30.574Z,24.00
2022-09-27T12:28:33.535Z,24.20
2022-09-27T12:31:34.535Z,23.90
2022-09-27T12:34:19.575Z,24.10
2022-09-27T12:37:08.312Z,24.20
2022-09-27T12:39:46.894Z,24.50
2022-09-27T12:42:30.286Z,24.90
2022-09-27T12:45:01.305Z,24.90
2022-09-27T12:47:52.381Z,25.00
2022-09-27T12:50:25.018Z,24.60
2022-09-27T12:52:56.172Z,24.40
2022-09-27T12:55:43.479Z,24.50
2022-09-27T12:58:20.409Z,24.70
2022-09-27T13:01:06.982Z,24.80
2022-09-27T13:03:37.615Z,24.70
2022-09-27T13:06:21.410Z,24.50
2022-09-27T13:09:07.458Z,24.70
2022-09-27T13:11:41.216Z,25.00
2022-09-27T13:14:18.813Z,25.00
2022-09-27T13:16:47.933Z,25.00
2022-09-27T13:19:26.551Z,24.80
2022-09-27T13:21:56.220Z,24.70
2022-09-27T13:24:43.739Z,24.90
2022-09-27T13:27:33.609Z,24.90
2022-09-27T13:30:09.761Z,25.40
2022-09-27T13:32:41.100Z,25.20
2022-09-27T13:35:28.657Z,24.90
2022-09-27T13:38:02.251Z,25.00
2022-09-27T13:40:45.112Z,24.80
2022-09-27T13:43:36.084Z,25.00
2022-09-27T13:46:24.051Z,25.00
2022-09-27T13:48:51.636Z,24.70
2022-09-27T13:51:27.302Z,24.50
2022-09-27T13:53:59.311Z,24.70
2022-09-27T13:56:48.449Z,25.00
2022-09-27T13:59:25.793Z,24.70
2022-09-27T14:02:32.522Z,24.50
2022-09-27T14:05:01.921Z,24.40
2022-09-27T14:07:41.444Z,24.60
2022-09-27T14:10:17.340Z,24.70
2022-09-27T14:12:47.613Z,24.80
2022-09-27T14:15:19.614Z,24.70
2022-09-27T14:17:47.509Z,24.60
2022-09-27T14:20:33.193Z,24.60
2022-09-27T14:23:02.777Z,24.50
2022-09-27T14:25:39.243Z,24.20
2022-09-27T14:28:19.005Z,23.90
2022-09-27T14:31:14.037Z,23.80
2022-09-27T14:34:09.113Z,23.80
2022-09-27T14:36:58.012Z,24.00
2022-09-27T14:39:35.883Z,23.90
2022-09-27T14:42:20.295Z,23.90
2022-09-27T14:44:48.382Z,23.90
2022-09-27T14:47:22.010Z,23.90
2022-09-27T14:49:50.862Z,23.90
2022-09-27T14:52:21.577Z,23.70
2022-09-27T14:54:59.385Z,23.80
2022-09-27T14:57:28.632Z,23.60
2022-09-27T14:59:57.975Z,23.60
2022-09-27T15:02:26.606Z,23.70
2022-09-27T15:04:55.086Z,23.60
2022-09-27T15:07:23.609Z,23.50
2022-09-27T15:09:52.037Z,23.40
2022-09-27T15:12:25.678Z,23.50
2022-09-27T15:14:54.448Z,23.30
2022-09-27T15:17:22.464Z,23.30
2022-09-27T15:19:57.681Z,23.40
2022-09-27T15:22:33.821Z,23.30
2022-09-27T15:25:06.132Z,23.20
2022-09-27T15:27:33.635Z,23.30
2022-09-27T15:30:01.080Z,23.20
2022-09-27T15:32:29.092Z,23.10
2022-09-27T15:34:57.296Z,23.10
2022-09-27T15:37:24.797Z,23.10
2022-09-27T15:39:52.240Z,23.20
2022-09-27T15:42:19.937Z,23.10
2022-09-27T15:44:54.468Z,23.30
2022-09-27T15:47:37.093Z,23.40
2022-09-27T15:50:16.905Z,23.30
2022-09-27T15:52:51.807Z,23.10
2022-09-27T15:55:21.148Z,23.20
2022-09-27T15:57:50.875Z,23.10
2022-09-27T16:00:22.420Z,23.00
2022-09-27T16:02:50.838Z,23.00
2022-09-27T16:05:20.043Z,23.00
2022-09-27T16:07:47.840Z,23.00
2022-09-27T16:10:19.994Z,22.90
2022-09-27T16:12:48.423Z,23.00
2022-09-27T16:15:17.139Z,22.90
2022-09-27T16:17:45.239Z,22.90
2022-09-27T16:20:27.062Z,22.70
2022-09-27T16:22:55.538Z,22.60
2022-09-27T16:25:23.690Z,22.50
2022-09-27T16:27:52.777Z,22.50
2022-09-27T16:30:21.075Z,22.60
2022-09-27T16:32:48.910Z,22.50
2022-09-27T16:35:17.787Z,22.40
2022-09-27T16:37:45.758Z,22.30
2022-09-27T16:40:14.180Z,22.30
2022-09-27T16:42:42.539Z,22.30
2022-09-27T16:45:12.731Z,22.20
2022-09-27T16:47:43.473Z,22.10
2022-09-27T16:50:31.066Z,22.00
2022-09-27T16:53:00.384Z,21.90
2022-09-27T16:55:28.939Z,21.80
2022-09-27T16:57:59.857Z,21.80
2022-09-27T17:00:27.988Z,21.70
2022-09-27T17:02:55.838Z,21.70
2022-09-27T17:05:23.355Z,21.60
2022-09-27T17:07:52.151Z,21.60
2022-09-27T17:10:20.382Z,21.60
2022-09-27T17:12:48.261Z,21.40
2022-09-27T17:15:16.185Z,21.30
2022-09-27T17:17:45.519Z,21.20
2022-09-27T17:20:12.973Z,21.20
2022-09-27T17:22:40.455Z,21.00
2022-09-27T17:25:08.271Z,20.90
2022-09-27T17:27:35.762Z,20.80
2022-09-27T17:30:03.827Z,20.80
2022-09-27T17:32:31.445Z,20.70
2022-09-27T17:34:59.062Z,20.70
2022-09-27T17:37:26.636Z,20.70
2022-09-27T17:39:54.135Z,20.80
2022-09-27T17:42:22.868Z,20.90
2022-09-27T17:44:50.344Z,20.90
2022-09-27T17:47:36.552Z,20.90
2022-09-27T17:50:22.850Z,20.90
2022-09-27T17:52:51.414Z,20.80
2022-09-27T17:55:19.260Z,20.90
2022-09-27T17:57:47.834Z,20.80
2022-09-27T18:00:19.606Z,20.80
2022-09-27T18:02:49.390Z,20.70
2022-09-27T18:05:21.297Z,20.70
2022-09-27T18:07:50.653Z,20.70
2022-09-27T18:10:18.824Z,20.60
2022-09-27T18:12:48.333Z,20.50
2022-09-27T18:15:19.036Z,20.50
2022-09-27T18:17:54.559Z,20.50
2022-09-27T18:20:26.034Z,20.30
2022-09-27T18:22:56.560Z,20.20
2022-09-27T18:25:25.333Z,20.10
2022-09-27T18:27:57.249Z,20.10
2022-09-27T18:30:27.232Z,20.10
2022-09-27T18:32:55.886Z,20.10
2022-09-27T18:35:26.536Z,20.10
2022-09-27T18:37:56.123Z,20.10
2022-09-27T18:40:44.524Z,20.00
2022-09-27T18:43:14.138Z,19.80
2022-09-27T18:45:42.268Z,19.60
2022-09-27T18:48:12.909Z,19.50
2022-09-27T18:50:46.878Z,19.50
2022-09-27T18:53:17.259Z,19.50
2022-09-27T18:55:46.158Z,19.40
2022-09-27T18:58:17.790Z,19.20
2022-09-27T19:00:46.849Z,19.10
2022-09-27T19:03:18.001Z,19.00
2022-09-27T19:05:54.277Z,18.90
2022-09-27T19:08:24.107Z,19.00
2022-09-27T19:10:52.806Z,19.00
2022-09-27T19:13:27.836Z,19.10
2022-09-27T19:15:59.230Z,19.10
2022-09-27T19:18:28.187Z,19.10
2022-09-27T19:21:08.259Z,19.20
2022-09-27T19:23:40.853Z,19.20
2022-09-27T19:26:14.096Z,19.30
2022-09-27T19:28:43.110Z,19.10
2022-09-27T19:31:22.257Z,19.00
2022-09-27T19:33:50.162Z,19.00
2022-09-27T19:36:19.727Z,18.80
2022-09-27T19:38:49.372Z,18.70
2022-09-27T19:41:17.796Z,18.60
2022-09-27T19:43:50.723Z,18.50
2022-09-27T19:46:19.942Z,18.30
2022-09-27T19:48:50.398Z,18.10
2022-09-27T19:51:22.293Z,18.10
2022-09-27T19:53:52.154Z,18.10
2022-09-27T19:56:21.785Z,18.10
2022-09-27T19:58:50.312Z,17.90
2022-09-27T20:01:23.364Z,17.90
2022-09-27T20:03:55.249Z,17.90
2022-09-27T20:06:27.787Z,17.90
2022-09-27T20:08:56.076Z,17.80
2022-09-27T20:11:25.940Z,17.70
2022-09-27T20:13:55.872Z,17.80
2022-09-27T20:16:25.395Z,17.80
2022-09-27T20:18:56.978Z,17.90
2022-09-27T20:21:26.955Z,17.80
2022-09-27T20:23:57.260Z,18.00
2022-09-27T20:26:27.622Z,18.00
2022-09-27T20:28:58.773Z,18.00
2022-09-27T20:31:32.103Z,18.10
2022-09-27T20:34:01.340Z,18.10
2022-09-27T20:36:30.574Z,18.10
2022-09-27T20:39:03.147Z,18.20
2022-09-27T20:41:34.434Z,18.20
2022-09-27T20:44:05.822Z,18.10
2022-09-27T20:46:34.747Z,18.10
2022-09-27T20:49:07.967Z,18.20
2022-09-27T20:51:38.849Z,18.10
2022-09-27T20:54:08.353Z,18.10
2022-09-27T20:56:37.339Z,17.90
2022-09-27T20:59:07.891Z,17.90
2022-09-27T21:01:37.210Z,17.90
2022-09-27T21:04:09.151Z,17.90
2022-09-27T21:06:37.178Z,17.70
2022-09-27T21:09:05.649Z,17.60
2022-09-27T21:11:33.451Z,17.50
2022-09-27T21:14:01.915Z,17.50
2022-09-27T21:16:34.727Z,17.50
2022-09-27T21:19:02.461Z,17.50
2022-09-27T21:21:30.559Z,17.40
2022-09-27T21:24:01.895Z,17.40
2022-09-27T21:26:31.102Z,17.30
2022-09-27T21:28:59.566Z,17.20
2022-09-27T21:31:32.265Z,17.10
2022-09-27T21:34:01.287Z,17.20
2022-09-27T21:36:33.665Z,17.30
2022-09-27T21:39:01.795Z,17.10
2022-09-27T21:41:29.823Z,17.00
2022-09-27T21:43:57.899Z,16.90
2022-09-27T21:46:27.015Z,16.70
2022-09-27T21:48:58.656Z,16.80
2022-09-27T21:51:27.405Z,17.00
2022-09-27T21:53:56.225Z,17.00
2022-09-27T21:56:25.416Z,17.00
2022-09-27T21:58:53.035Z,16.90
2022-09-27T22:01:20.890Z,16.70
2022-09-27T22:03:49.218Z,16.70
2022-09-27T22:06:23.109Z,16.70
2022-09-27T22:08:51.142Z,16.60
2022-09-27T22:11:29.155Z,16.60
2022-09-27T22:13:57.589Z,16.70
2022-09-27T22:16:26.989Z,16.70
2022-09-27T22:18:55.554Z,16.70
2022-09-27T22:21:24.270Z,16.80
2022-09-27T22:23:55.722Z,16.70
2022-09-27T22:26:24.423Z,16.50
2022-09-27T22:28:52.505Z,16.30
2022-09-27T22:31:20.939Z,16.30
2022-09-27T22:33:49.953Z,16.50
2022-09-27T22:36:17.540Z,16.50
2022-09-27T22:38:45.374Z,16.50
2022-09-27T22:41:13.159Z,16.40
2022-09-27T22:43:40.843Z,16.50
2022-09-27T22:46:09.501Z,16.50
2022-09-27T22:48:37.437Z,16.30
2022-09-27T22:51:05.343Z,16.30
2022-09-27T22:53:33.057Z,16.30
2022-09-27T22:56:07.463Z,16.20
2022-09-27T22:58:36.059Z,16.10
2022-09-27T23:01:07.645Z,15.90
2022-09-27T23:03:35.307Z,15.80
2022-09-27T23:06:07.507Z,15.90
2022-09-27T23:08:38.782Z,16.00
2022-09-27T23:11:11.463Z,15.80
2022-09-27T23:13:40.384Z,15.60
2022-09-27T23:16:09.184Z,15.50
2022-09-27T23:18:37.487Z,15.80
2022-09-27T23:21:07.218Z,15.90
2022-09-27T23:23:35.587Z,15.80
2022-09-27T23:26:04.743Z,15.90
2022-09-27T23:28:32.802Z,15.80
2022-09-27T23:31:04.348Z,15.70
2022-09-27T23:33:31.848Z,15.70
2022-09-27T23:36:00.462Z,15.80
2022-09-27T23:38:29.494Z,15.80
2022-09-27T23:40:57.517Z,15.60
2022-09-27T23:43:25.291Z,15.60
2022-09-27T23:45:55.413Z,15.70
2022-09-27T23:48:24.201Z,15.80
2022-09-27T23:50:52.388Z,15.80
2022-09-27T23:53:23.406Z,15.80
2022-09-27T23:56:12.305Z,15.50
2022-09-27T23:58:41.418Z,15.70
